createdAt,value
2022-10-02T00:00:10.606Z,99022.44
2022-10-02T00:02:46.769Z,99030.25
2022-10-02T00:05:26.016Z,99029.72
2022-10-02T00:08:01.433Z,99036.00
2022-10-02T00:10:29.511Z,99044.38
2022-10-02T00:13:08.604Z,99040.37
2022-10-02T00:15:37.894Z,99043.50
2022-10-02T00:18:12.114Z,99051.09
2022-10-02T00:20:51.293Z,99052.25
2022-10-02T00:23:27.193Z,99047.59
2022-10-02T00:26:02.694Z,99051.69
2022-10-02T00:28:54.593Z,99062.06
2022-10-02T00:31:32.951Z,99074.47
2022-10-02T00:34:33.035Z,99074.22
2022-10-02T00:37:22.675Z,99077.75
2022-10-02T00:39:53.281Z,99084.88
2022-10-02T00:42:24.211Z,99083.72
2022-10-02T00:45:32.907Z,99087.37
2022-10-02T00:48:38.512Z,99094.81
2022-10-02T00:51:38.612Z,99077.03
2022-10-02T00:54:21.891Z,99088.38
2022-10-02T00:57:00.695Z,99085.47
2022-10-02T01:00:08.826Z,99082.50
2022-10-02T01:02:36.474Z,99075.62
2022-10-02T01:05:08.684Z,99071.97
2022-10-02T01:07:39.660Z,99076.28
2022-10-02T01:10:09.347Z,99059.75
2022-10-02T01:12:38.295Z,99073.69
2022-10-02T01:15:16.863Z,99076.69
2022-10-02T01:17:46.351Z,99067.66
2022-10-02T01:20:24.071Z,99067.31
2022-10-02T01:22:59.114Z,99067.75
2022-10-02T01:25:26.971Z,99080.19
2022-10-02T01:27:55.275Z,99078.28
2022-10-02T01:30:23.311Z,99086.00
2022-10-02T01:32:55.651Z,99094.22
2022-10-02T01:35:28.369Z,99096.38
2022-10-02T01:37:56.231Z,99105.41
2022-10-02T01:40:27.618Z,99107.41
2022-10-02T01:42:56.602Z,99102.69
2022-10-02T01:45:34.466Z,99111.38
2022-10-02T01:48:14.263Z,99108.31
2022-10-02T01:50:52.172Z,99120.50
2022-10-02T01:53:22.602Z,99129.28
2022-10-02T01:56:19.644Z,99134.84
2022-10-02T01:59:13.572Z,99142.28
2022-10-02T02:01:47.953Z,99149.44
2022-10-02T02:04:28.392Z,99149.75
2022-10-02T02:07:11.673Z,99162.06
2022-10-02T02:09:54.152Z,99159.53
2022-10-02T02:12:44.220Z,99170.41
2022-10-02T02:15:52.858Z,99169.50
2022-10-02T02:18:36.263Z,99174.62
2022-10-02T02:21:08.993Z,99172.03
2022-10-02T02:23:37.841Z,99172.66
2022-10-02T02:26:12.654Z,99182.75
2022-10-02T02:29:01.963Z,99182.31
2022-10-02T02:31:37.444Z,99183.50
2022-10-02T02:34:10.323Z,99184.41
2022-10-02T02:36:41.671Z,99183.28
2022-10-02T02:39:19.162Z,99181.50
2022-10-02T02:41:56.372Z,99184.84
2022-10-02T02:44:43.871Z,99187.09
2022-10-02T02:47:33.283Z,99195.97
2022-10-02T02:50:09.621Z,99196.22
2022-10-02T02:52:45.844Z,99202.44
2022-10-02T02:55:17.881Z,99198.16
2022-10-02T02:58:03.512Z,99201.75
2022-10-02T03:00:31.512Z,99209.50
2022-10-02T03:02:59.661Z,99209.53
2022-10-02T03:05:28.462Z,99212.97
2022-10-02T03:07:59.272Z,99216.06
2022-10-02T03:10:46.225Z,99214.13
2022-10-02T03:13:38.093Z,99217.44
2022-10-02T03:16:24.924Z,99221.19
2022-10-02T03:19:14.357Z,99218.34
2022-10-02T03:21:47.922Z,99225.72
2022-10-02T03:24:40.774Z,99218.00
2022-10-02T03:27:12.143Z,99227.34
2022-10-02T03:30:01.711Z,99228.94
2022-10-02T03:32:31.063Z,99234.41
2022-10-02T03:34:59.507Z,99232.53
2022-10-02T03:37:28.112Z,99228.44
2022-10-02T03:40:01.054Z,99239.53
2022-10-02T03:42:32.132Z,99235.31
2022-10-02T03:45:00.274Z,99244.34
2022-10-02T03:47:28.103Z,99249.50
2022-10-02T03:49:55.954Z,99246.22
2022-10-02T03:52:24.932Z,99246.63
2022-10-02T03:54:56.793Z,99248.13
2022-10-02T03:57:25.942Z,99256.75
2022-10-02T04:00:10.436Z,99245.38
2022-10-02T04:02:43.394Z,99250.97
2022-10-02T04:05:53.802Z,99254.28
2022-10-02T04:08:26.392Z,99253.81
2022-10-02T04:10:54.263Z,99252.25
2022-10-02T04:14:07.262Z,99253.72
2022-10-02T04:16:39.407Z,99254.09
2022-10-02T04:19:34.101Z,99261.34
2022-10-02T04:22:33.331Z,99260.91
2022-10-02T04:25:14.804Z,99266.03
2022-10-02T04:27:57.421Z,99262.13
2022-10-02T04:30:25.735Z,99264.53
2022-10-02T04:32:54.785Z,99267.72
2022-10-02T04:35:30.223Z,99274.78
2022-10-02T04:38:05.153Z,99277.84
2022-10-02T04:40:41.853Z,99283.53
2022-10-02T04:43:35.373Z,99294.88
2022-10-02T04:46:30.713Z,99314.59
2022-10-02T04:49:23.584Z,99308.63
2022-10-02T04:52:38.223Z,99310.16
2022-10-02T04:55:17.352Z,99317.38
2022-10-02T04:57:58.639Z,99332.72
2022-10-02T05:00:30.682Z,99343.78
2022-10-02T05:03:10.702Z,99333.91
2022-10-02T05:06:03.322Z,99331.78
2022-10-02T05:09:13.553Z,99341.31
2022-10-02T05:11:53.983Z,99344.34
2022-10-02T05:14:27.642Z,99345.59
2022-10-02T05:17:16.754Z,99354.78
2022-10-02T05:20:23.286Z,99355.66
2022-10-02T05:22:51.336Z,99352.22
2022-10-02T05:25:41.972Z,99353.78
2022-10-02T05:28:13.118Z,99349.53
2022-10-02T05:30:52.825Z,99354.28
2022-10-02T05:33:32.844Z,99359.31
2022-10-02T05:36:13.192Z,99368.75
2022-10-02T05:38:55.481Z,99359.34
2022-10-02T05:41:44.288Z,99371.38
2022-10-02T05:44:28.802Z,99370.63
2022-10-02T05:47:01.948Z,99365.75
2022-10-02T05:49:37.155Z,99368.94
2022-10-02T05:52:17.571Z,99371.72
2022-10-02T05:54:47.693Z,99381.53
2022-10-02T05:57:41.623Z,99386.13
2022-10-02T06:00:39.505Z,99387.00
2022-10-02T06:03:20.026Z,99388.34
2022-10-02T06:05:57.808Z,99390.91
2022-10-02T06:08:41.446Z,99399.41
2022-10-02T06:11:18.033Z,99401.28
2022-10-02T06:14:00.949Z,99404.88
2022-10-02T06:16:50.953Z,99408.00
2022-10-02T06:20:01.007Z,99409.44
2022-10-02T06:23:15.522Z,99418.81
2022-10-02T06:25:47.279Z,99424.91
2022-10-02T06:28:20.326Z,99424.44
2022-10-02T06:30:53.651Z,99432.22
2022-10-02T06:33:24.191Z,99432.25
2022-10-02T06:35:52.493Z,99441.91
2022-10-02T06:38:48.841Z,99432.88
2022-10-02T06:41:49.371Z,99445.47
2022-10-02T06:44:27.779Z,99444.00
2022-10-02T06:47:11.270Z,99456.69
2022-10-02T06:50:01.997Z,99455.22
2022-10-02T06:52:57.387Z,99467.00
2022-10-02T06:55:49.073Z,99462.97
2022-10-02T06:58:30.343Z,99476.38
2022-10-02T07:01:23.281Z,99470.13
2022-10-02T07:04:12.684Z,99478.69
2022-10-02T07:07:14.491Z,99477.09
2022-10-02T07:10:04.133Z,99484.09
2022-10-02T07:13:01.591Z,99497.97
2022-10-02T07:15:44.088Z,99497.50
2022-10-02T07:18:47.241Z,99487.78
2022-10-02T07:21:31.321Z,99483.47
2022-10-02T07:24:17.581Z,99489.78
2022-10-02T07:27:12.556Z,99483.63
2022-10-02T07:29:43.150Z,99484.25
2022-10-02T07:32:36.554Z,99482.19
2022-10-02T07:35:04.990Z,99491.97
2022-10-02T07:37:56.198Z,99491.25
2022-10-02T07:41:01.603Z,99497.31
2022-10-02T07:43:51.301Z,99498.66
2022-10-02T07:46:29.660Z,99497.31
2022-10-02T07:49:27.565Z,99494.09
2022-10-02T07:52:18.242Z,99495.91
2022-10-02T07:54:58.833Z,99506.44
2022-10-02T07:57:36.330Z,99509.53
2022-10-02T08:00:09.841Z,99506.81
2022-10-02T08:02:46.136Z,99516.19
2022-10-02T08:05:22.212Z,99518.03
2022-10-02T08:07:57.778Z,99520.37
2022-10-02T08:10:33.306Z,99520.16
2022-10-02T08:13:22.942Z,99527.41
2022-10-02T08:15:55.762Z,99515.31
2022-10-02T08:18:37.605Z,99524.75
2022-10-02T08:21:12.068Z,99516.19
2022-10-02T08:23:44.652Z,99526.44
2022-10-02T08:26:16.994Z,99514.53
2022-10-02T08:29:12.353Z,99525.88
2022-10-02T08:31:40.909Z,99537.66
2022-10-02T08:34:17.526Z,99543.94
2022-10-02T08:37:08.422Z,99542.19
2022-10-02T08:40:01.815Z,99540.62
2022-10-02T08:42:33.172Z,99541.69
2022-10-02T08:45:22.541Z,99543.06
2022-10-02T08:48:27.772Z,99541.03
2022-10-02T08:51:18.161Z,99540.12
2022-10-02T08:54:07.974Z,99544.84
2022-10-02T08:56:41.312Z,99524.25
2022-10-02T08:59:19.184Z,99539.34
2022-10-02T09:02:02.338Z,99543.09
2022-10-02T09:04:49.552Z,99537.75
2022-10-02T09:07:29.542Z,99532.22
2022-10-02T09:10:35.199Z,99526.41
2022-10-02T09:13:23.064Z,99527.91
2022-10-02T09:16:04.563Z,99528.94
2022-10-02T09:19:04.378Z,99537.88
2022-10-02T09:22:17.302Z,99535.78
2022-10-02T09:25:17.562Z,99549.88
2022-10-02T09:28:13.959Z,99541.41
2022-10-02T09:30:58.531Z,99541.16
2022-10-02T09:33:57.734Z,99529.66
2022-10-02T09:36:40.866Z,99521.72
2022-10-02T09:39:34.062Z,99528.25
2022-10-02T09:42:06.242Z,99516.84
2022-10-02T09:45:01.376Z,99515.88
2022-10-02T09:47:39.151Z,99509.19
2022-10-02T09:50:25.923Z,99514.28
2022-10-02T09:53:28.095Z,99508.72
2022-10-02T09:56:21.722Z,99514.78
2022-10-02T09:58:52.502Z,99517.06
2022-10-02T10:01:48.829Z,99512.72
2022-10-02T10:04:54.039Z,99505.28
2022-10-02T10:07:36.182Z,99492.03
2022-10-02T10:10:41.714Z,99494.62
2022-10-02T10:13:12.841Z,99482.75
2022-10-02T10:16:20.435Z,99499.72
2022-10-02T10:19:25.652Z,99493.00
2022-10-02T10:22:10.733Z,99482.66
2022-10-02T10:24:57.268Z,99498.97
2022-10-02T10:27:39.000Z,99495.34
2022-10-02T10:30:26.101Z,99495.72
2022-10-02T10:33:16.230Z,99493.16
2022-10-02T10:36:48.812Z,99498.53
2022-10-02T10:39:35.332Z,99497.44
2022-10-02T10:42:56.396Z,99494.19
2022-10-02T10:45:30.373Z,99496.84
2022-10-02T10:48:30.747Z,99479.97
2022-10-02T10:51:14.692Z,99492.38
2022-10-02T10:54:01.730Z,99495.69
2022-10-02T10:56:39.050Z,99482.66
2022-10-02T10:59:12.754Z,99486.72
2022-10-02T11:01:53.446Z,99477.31
2022-10-02T11:04:39.152Z,99480.84
2022-10-02T11:07:26.803Z,99494.28
2022-10-02T11:10:11.597Z,99494.28
2022-10-02T11:12:42.336Z,99495.00
2022-10-02T11:15:37.712Z,99496.00
2022-10-02T11:18:34.823Z,99494.12
2022-10-02T11:21:40.141Z,99489.22
2022-10-02T11:24:23.005Z,99482.72
2022-10-02T11:26:56.960Z,99489.97
2022-10-02T11:29:40.161Z,99481.59
2022-10-02T11:32:28.377Z,99474.16
2022-10-02T11:35:15.094Z,99472.19
2022-10-02T11:38:03.993Z,99472.19
2022-10-02T11:40:38.692Z,99474.47
2022-10-02T11:43:25.082Z,99463.84
2022-10-02T11:46:09.747Z,99462.44
2022-10-02T11:49:11.781Z,99462.38
2022-10-02T11:51:48.982Z,99455.62
2022-10-02T11:54:45.061Z,99467.22
2022-10-02T11:57:48.251Z,99466.75
2022-10-02T12:00:45.574Z,99456.75
2022-10-02T12:03:36.639Z,99458.53
2022-10-02T12:06:15.550Z,99473.47
2022-10-02T12:09:00.771Z,99481.25
2022-10-02T12:11:40.285Z,99480.41
2022-10-02T12:14:23.824Z,99465.91
2022-10-02T12:17:27.174Z,99467.53
2022-10-02T12:20:32.652Z,99474.66
2022-10-02T12:23:36.632Z,99465.66
2022-10-02T12:26:40.443Z,99451.41
2022-10-02T12:29:26.134Z,99447.94
2022-10-02T12:32:09.549Z,99440.31
2022-10-02T12:35:03.922Z,99444.56
2022-10-02T12:37:38.271Z,99434.94
2022-10-02T12:40:17.745Z,99437.69
2022-10-02T12:42:56.295Z,99425.38
2022-10-02T12:45:32.439Z,99424.72
2022-10-02T12:48:12.402Z,99420.56
2022-10-02T12:50:46.860Z,99421.44
2022-10-02T12:53:52.669Z,99408.50
2022-10-02T12:56:39.881Z,99410.62
2022-10-02T12:59:21.368Z,99408.13
2022-10-02T13:02:49.093Z,99407.72
2022-10-02T13:05:35.253Z,99400.88
2022-10-02T13:08:25.183Z,99387.62
2022-10-02T13:11:05.682Z,99392.97
2022-10-02T13:14:01.318Z,99391.13
2022-10-02T13:16:30.222Z,99392.97
2022-10-02T13:19:30.642Z,99387.03
2022-10-02T13:21:59.256Z,99390.16
2022-10-02T13:24:57.634Z,99397.44
2022-10-02T13:27:43.343Z,99396.66
2022-10-02T13:30:11.578Z,99381.97
2022-10-02T13:33:08.650Z,99385.38
2022-10-02T13:36:00.893Z,99385.31
2022-10-02T13:39:08.675Z,99375.16
2022-10-02T13:41:55.149Z,99379.41
2022-10-02T13:44:50.014Z,99381.56
2022-10-02T13:47:40.662Z,99369.06
2022-10-02T13:50:18.902Z,99367.78
2022-10-02T13:52:58.981Z,99365.72
2022-10-02T13:55:30.851Z,99362.47
2022-10-02T13:58:11.135Z,99361.72
2022-10-02T14:00:39.232Z,99359.78
2022-10-02T14:03:29.069Z,99353.47
2022-10-02T14:06:25.318Z,99360.66
2022-10-02T14:09:12.899Z,99366.59
2022-10-02T14:11:58.770Z,99374.88
2022-10-02T14:14:45.349Z,99373.38
2022-10-02T14:17:36.111Z,99357.69
2022-10-02T14:20:20.613Z,99359.56
2022-10-02T14:23:05.848Z,99358.13
2022-10-02T14:25:40.275Z,99370.28
2022-10-02T14:28:46.351Z,99358.31
2022-10-02T14:31:18.024Z,99350.53
2022-10-02T14:34:03.504Z,99349.88
2022-10-02T14:36:41.513Z,99342.50
2022-10-02T14:39:28.283Z,99341.78
2022-10-02T14:41:59.391Z,99348.16
2022-10-02T14:44:28.784Z,99343.13
2022-10-02T14:47:06.632Z,99343.56
2022-10-02T14:49:48.683Z,99329.28
2022-10-02T14:52:35.703Z,99331.19
2022-10-02T14:55:22.352Z,99323.25
2022-10-02T14:58:13.102Z,99325.69
2022-10-02T15:01:12.303Z,99313.19
2022-10-02T15:03:55.893Z,99313.16
2022-10-02T15:06:32.954Z,99307.75
2022-10-02T15:09:33.421Z,99312.28
2022-10-02T15:12:13.962Z,99300.59
2022-10-02T15:15:18.304Z,99307.13
2022-10-02T15:18:21.233Z,99318.53
2022-10-02T15:21:00.851Z,99302.78
2022-10-02T15:23:48.234Z,99310.19
2022-10-02T15:26:28.442Z,99301.38
2022-10-02T15:28:59.227Z,99297.34
2022-10-02T15:31:42.334Z,99288.94
2022-10-02T15:34:37.484Z,99284.97
2022-10-02T15:37:11.722Z,99286.91
2022-10-02T15:39:42.755Z,99278.84
2022-10-02T15:42:17.687Z,99272.78
2022-10-02T15:45:03.969Z,99269.75
2022-10-02T15:47:54.986Z,99272.69
2022-10-02T15:50:32.163Z,99286.59
2022-10-02T15:53:24.981Z,99282.53
2022-10-02T15:56:13.721Z,99272.22
2022-10-02T15:59:16.092Z,99263.06
2022-10-02T16:01:58.245Z,99271.53
2022-10-02T16:04:51.459Z,99268.53
2022-10-02T16:07:36.108Z,99271.66
2022-10-02T16:10:27.516Z,99263.03
2022-10-02T16:13:13.837Z,99263.28
2022-10-02T16:16:19.206Z,99276.28
2022-10-02T16:18:54.510Z,99264.34
2022-10-02T16:21:50.774Z,99269.69
2022-10-02T16:24:41.215Z,99268.91
2022-10-02T16:27:12.724Z,99260.19
2022-10-02T16:30:12.695Z,99260.50
2022-10-02T16:33:01.974Z,99267.25
2022-10-02T16:35:58.033Z,99287.44
2022-10-02T16:38:41.301Z,99292.59
2022-10-02T16:41:28.376Z,99297.56
2022-10-02T16:44:24.140Z,99284.47
2022-10-02T16:47:50.455Z,99277.69
2022-10-02T16:50:24.324Z,99269.75
2022-10-02T16:53:04.623Z,99274.44
2022-10-02T16:55:38.343Z,99272.75
2022-10-02T16:58:26.385Z,99268.59
2022-10-02T17:01:25.703Z,99262.59
2022-10-02T17:04:16.226Z,99262.16
2022-10-02T17:06:50.304Z,99261.69
2022-10-02T17:09:24.981Z,99256.66
2022-10-02T17:12:04.253Z,99262.94
2022-10-02T17:14:45.152Z,99262.47
2022-10-02T17:17:36.894Z,99245.47
2022-10-02T17:20:16.903Z,99244.34
2022-10-02T17:23:00.553Z,99246.25
2022-10-02T17:25:43.983Z,99246.28
2022-10-02T17:28:22.267Z,99239.19
2022-10-02T17:31:08.663Z,99246.66
2022-10-02T17:33:46.728Z,99241.94
2022-10-02T17:36:36.737Z,99247.84
2022-10-02T17:39:33.384Z,99237.25
2022-10-02T17:42:07.431Z,99241.84
2022-10-02T17:44:56.651Z,99253.31
2022-10-02T17:47:39.881Z,99254.94
2022-10-02T17:50:25.544Z,99254.03
2022-10-02T17:53:29.301Z,99250.78
2022-10-02T17:56:22.090Z,99240.28
2022-10-02T17:58:56.171Z,99236.09
2022-10-02T18:01:58.588Z,99244.03
2022-10-02T18:04:36.300Z,99244.97
2022-10-02T18:07:30.381Z,99247.34
2022-10-02T18:10:08.933Z,99253.37
2022-10-02T18:12:58.859Z,99259.03
2022-10-02T18:15:35.703Z,99250.00
2022-10-02T18:18:45.183Z,99246.94
2022-10-02T18:21:32.132Z,99243.56
2022-10-02T18:24:34.062Z,99251.34
2022-10-02T18:27:37.814Z,99244.25
2022-10-02T18:30:12.741Z,99242.53
2022-10-02T18:33:12.304Z,99247.56
2022-10-02T18:36:19.119Z,99250.78
2022-10-02T18:38:47.411Z,99255.69
2022-10-02T18:41:27.523Z,99258.62
2022-10-02T18:44:30.171Z,99265.88
2022-10-02T18:47:11.082Z,99263.16
2022-10-02T18:50:00.703Z,99264.94
2022-10-02T18:52:47.821Z,99255.41
2022-10-02T18:55:34.791Z,99254.72
2022-10-02T18:58:37.309Z,99251.03
2022-10-02T19:01:11.141Z,99252.94
2022-10-02T19:04:01.194Z,99254.53
2022-10-02T19:06:51.589Z,99246.56
2022-10-02T19:09:25.185Z,99254.78
2022-10-02T19:12:06.631Z,99253.81
2022-10-02T19:14:42.757Z,99247.75
2022-10-02T19:17:23.996Z,99237.41
2022-10-02T19:19:56.106Z,99242.00
2022-10-02T19:22:30.631Z,99259.25
2022-10-02T19:25:17.234Z,99249.59
2022-10-02T19:27:51.229Z,99256.59
2022-10-02T19:30:23.947Z,99263.34
2022-10-02T19:32:57.677Z,99266.97
2022-10-02T19:35:30.980Z,99264.16
2022-10-02T19:38:10.098Z,99261.63
2022-10-02T19:40:38.212Z,99255.13
2022-10-02T19:43:08.689Z,99245.00
2022-10-02T19:45:41.344Z,99246.53
2022-10-02T19:48:11.023Z,99237.34
2022-10-02T19:50:42.601Z,99231.22
2022-10-02T19:53:19.901Z,99234.03
2022-10-02T19:55:52.382Z,99229.19
2022-10-02T19:58:22.901Z,99226.44
2022-10-02T20:00:59.889Z,99225.81
2022-10-02T20:03:33.821Z,99225.81
2022-10-02T20:06:12.745Z,99216.41
2022-10-02T20:09:08.917Z,99219.94
2022-10-02T20:11:40.603Z,99217.19
2022-10-02T20:14:14.031Z,99209.94
2022-10-02T20:17:00.385Z,99210.66
2022-10-02T20:19:31.865Z,99215.16
2022-10-02T20:22:04.423Z,99206.03
2022-10-02T20:24:37.536Z,99200.66
2022-10-02T20:27:11.756Z,99202.34
2022-10-02T20:29:47.073Z,99197.56
2022-10-02T20:32:21.344Z,99189.00
2022-10-02T20:34:50.693Z,99197.94
2022-10-02T20:37:23.942Z,99197.94
2022-10-02T20:40:01.444Z,99198.03
2022-10-02T20:42:35.902Z,99184.94
2022-10-02T20:45:04.444Z,99186.78
2022-10-02T20:47:50.301Z,99174.84
2022-10-02T20:50:46.441Z,99173.84
2022-10-02T20:53:45.300Z,99185.13
2022-10-02T20:56:28.722Z,99180.56
2022-10-02T20:59:30.811Z,99170.66
2022-10-02T21:02:15.510Z,99186.03
2022-10-02T21:05:08.042Z,99192.34
2022-10-02T21:07:57.072Z,99204.75
2022-10-02T21:10:45.653Z,99207.19
2022-10-02T21:13:25.563Z,99203.63
2022-10-02T21:16:25.292Z,99205.06
2022-10-02T21:18:53.521Z,99205.06
2022-10-02T21:21:48.420Z,99191.38
2022-10-02T21:24:40.164Z,99201.22
2022-10-02T21:27:23.113Z,99201.75
2022-10-02T21:30:15.503Z,99199.56
2022-10-02T21:33:09.431Z,99203.00
2022-10-02T21:35:44.573Z,99197.75
2022-10-02T21:38:43.801Z,99198.22
2022-10-02T21:41:21.273Z,99202.53
2022-10-02T21:44:18.328Z,99192.81
2022-10-02T21:47:05.209Z,99202.41
2022-10-02T21:50:12.413Z,99204.88
2022-10-02T21:53:22.042Z,99189.81
2022-10-02T21:56:14.731Z,99193.06
2022-10-02T21:59:10.622Z,99187.78
2022-10-02T22:02:09.376Z,99187.00
2022-10-02T22:05:10.483Z,99193.75
2022-10-02T22:07:51.591Z,99182.78
2022-10-02T22:10:30.644Z,99184.59
2022-10-02T22:13:18.353Z,99180.47
2022-10-02T22:16:04.517Z,99178.44
2022-10-02T22:18:55.262Z,99183.69
2022-10-02T22:21:41.000Z,99179.19
2022-10-02T22:24:24.324Z,99178.56
2022-10-02T22:27:21.610Z,99174.09
2022-10-02T22:29:54.352Z,99171.13
2022-10-02T22:33:05.763Z,99179.28
2022-10-02T22:35:51.854Z,99168.19
2022-10-02T22:38:33.002Z,99175.69
2022-10-02T22:41:07.152Z,99172.47
2022-10-02T22:44:00.294Z,99169.47
2022-10-02T22:47:03.266Z,99170.22
2022-10-02T22:49:50.902Z,99175.84
2022-10-02T22:52:27.810Z,99167.66
2022-10-02T22:55:04.880Z,99172.50
2022-10-02T22:58:06.460Z,99168.22
2022-10-02T23:00:51.372Z,99175.91
2022-10-02T23:03:31.561Z,99160.69
2022-10-02T23:06:19.202Z,99172.84
2022-10-02T23:09:12.973Z,99167.44
2022-10-02T23:11:50.361Z,99166.81
2022-10-02T23:14:47.762Z,99163.81
2022-10-02T23:17:22.634Z,99159.78
2022-10-02T23:19:56.734Z,99154.13
2022-10-02T23:22:32.051Z,99166.69
2022-10-02T23:25:30.441Z,99156.91
2022-10-02T23:28:15.374Z,99161.66
2022-10-02T23:30:50.977Z,99162.53
2022-10-02T23:33:26.306Z,99167.50
2022-10-02T23:36:07.434Z,99170.66
2022-10-02T23:38:58.612Z,99170.56
2022-10-02T23:41:39.640Z,99166.12
2022-10-02T23:44:20.907Z,99149.69
2022-10-02T23:46:51.468Z,99164.78
2022-10-02T23:49:24.154Z,99166.16
2022-10-02T23:51:58.154Z,99160.59
2022-10-02T23:55:07.753Z,99167.25
2022-10-02T23:57:41.264Z,99177.94
